Time;durP1;ratioP1;P1;durP2;ratioP2;P2;SDS_P1;SDS_P2;PMS_P1;PMS_P2;Temp;Humidity;BMP_temperature;BMP_pressure;BME280_temperature;BME280_humidity;BME280_pressure;Samples;Min_cycle;Max_cycle;Signal;HPM_P1;HPM_P2
2023/07/06 00:01:21;;;;;;;5.97;2.50;;;;;;;;;;5050171;28;20025;-71
2023/07/06 00:03:47;;;;;;;5.70;2.20;;;;;;;;;;5049133;28;20043;-71
2023/07/06 00:06:12;;;;;;;5.00;2.75;;;;;;;;;;5050946;28;20465;-71
2023/07/06 00:08:37;;;;;;;5.80;2.17;;;;;;;;;;5050270;28;20025;-70
2023/07/06 00:11:04;;;;;;;6.17;2.40;;;;;;;;;;5048606;28;20613;-70
2023/07/06 00:13:30;;;;;;;7.03;2.75;;;;;;;;;;5049220;28;20358;-71
2023/07/06 00:15:55;;;;;;;5.43;2.17;;;;;;;;;;5046045;28;20105;-71
2023/07/06 00:18:20;;;;;;;5.45;2.53;;;;;;;;;;5050617;28;20260;-70
2023/07/06 00:20:49;;;;;;;6.25;2.60;;;;;;;;;;5048878;28;20027;-71
2023/07/06 00:23:14;;;;;;;4.05;2.55;;;;;;;;;;5048052;28;20074;-71
2023/07/06 00:25:41;;;;;;;7.75;2.30;;;;;;;;;;5050490;28;20424;-70
2023/07/06 00:28:08;;;;;;;5.40;2.45;;;;;;;;;;5050584;28;20032;-70
2023/07/06 00:31:10;;;;;;;4.40;2.88;;;;;;;;;;5048918;28;20017;-71
2023/07/06 00:33:25;;;;;;;6.00;3.10;;;;;;;;;;5046808;28;20083;-71
2023/07/06 00:35:50;;;;;;;3.95;2.47;;;;;;;;;;5050675;28;20466;-71
2023/07/06 00:38:21;;;;;;;5.28;2.60;;;;;;;;;;5042015;28;20021;-71
2023/07/06 00:40:47;;;;;;;7.47;2.72;;;;;;;;;;5041339;28;20021;-71
2023/07/06 00:43:17;;;;;;;7.00;2.92;;;;;;;;;;5049005;28;20032;-71
2023/07/06 00:45:44;;;;;;;4.33;2.70;;;;;;;;;;5049831;28;20079;-70
2023/07/06 00:48:15;;;;;;;7.72;3.08;;;;;;;;;;5049771;28;20462;-71
2023/07/06 00:50:40;;;;;;;5.32;2.00;;;;;;;;;;5049328;28;20050;-71
2023/07/06 00:53:07;;;;;;;9.55;3.45;;;;;;;;;;5047418;28;20099;-71
2023/07/06 00:55:36;;;;;;;4.70;2.90;;;;;;;;;;5048339;28;20070;-71
2023/07/06 00:58:14;;;;;;;6.00;3.17;;;;;;;;;;5049360;28;20021;-71
2023/07/06 01:00:40;;;;;;;6.38;3.30;;;;;;;;;;5046784;28;20017;-71
2023/07/06 01:03:06;;;;;;;9.40;3.65;;;;;;;;;;5047209;28;20079;-71
2023/07/06 01:05:32;;;;;;;5.53;3.17;;;;;;;;;;5045399;28;20029;-71
2023/07/06 01:08:03;;;;;;;8.75;3.55;;;;;;;;;;5046085;28;20033;-71
2023/07/06 01:10:29;;;;;;;9.48;3.22;;;;;;;;;;5050066;28;20535;-71
2023/07/06 01:12:55;;;;;;;6.82;3.00;;;;;;;;;;5049351;28;20124;-71
2023/07/06 01:15:21;;;;;;;12.95;3.65;;;;;;;;;;5048794;28;20614;-71
2023/07/06 01:17:57;;;;;;;5.28;3.00;;;;;;;;;;5046816;28;20375;-71
2023/07/06 01:20:25;;;;;;;6.82;3.28;;;;;;;;;;5048928;28;20083;-71
2023/07/06 01:22:53;;;;;;;5.07;2.88;;;;;;;;;;5047153;28;20013;-70
2023/07/06 01:25:24;;;;;;;5.75;3.13;;;;;;;;;;5049550;28;20509;-71
2023/07/06 01:27:50;;;;;;;7.68;3.33;;;;;;;;;;5050283;28;20060;-71
2023/07/06 01:30:25;;;;;;;7.82;2.75;;;;;;;;;;5046613;28;20048;-71
2023/07/06 01:32:58;;;;;;;4.95;3.08;;;;;;;;;;5047175;28;20047;-71
2023/07/06 01:35:28;;;;;;;8.80;2.47;;;;;;;;;;5049603;28;20025;-70
2023/07/06 01:37:54;;;;;;;6.63;3.05;;;;;;;;;;5048185;28;20104;-70
2023/07/06 01:40:20;;;;;;;6.20;2.75;;;;;;;;;;5049777;28;20017;-71
2023/07/06 01:42:45;;;;;;;6.85;3.08;;;;;;;;;;5049466;28;20104;-70
2023/07/06 01:45:11;;;;;;;7.10;3.03;;;;;;;;;;5045237;28;20440;-70
2023/07/06 01:47:38;;;;;;;9.90;3.10;;;;;;;;;;5049836;28;20315;-71
2023/07/06 01:50:06;;;;;;;4.35;2.55;;;;;;;;;;5048592;28;20092;-71
2023/07/06 01:52:43;;;;;;;5.03;3.13;;;;;;;;;;5050324;28;20021;-71
2023/07/06 01:55:11;;;;;;;5.10;3.13;;;;;;;;;;5051507;28;20016;-70
2023/07/06 01:57:59;;;;;;;7.70;3.35;;;;;;;;;;5050136;28;20486;-70
2023/07/06 02:00:26;;;;;;;5.05;3.30;;;;;;;;;;5045096;28;20135;-71
2023/07/06 02:02:52;;;;;;;4.88;2.88;;;;;;;;;;5051061;28;20029;-71
2023/07/06 02:05:18;;;;;;;6.57;2.78;;;;;;;;;;5051163;28;20025;-70
2023/07/06 02:07:44;;;;;;;3.90;2.75;;;;;;;;;;5052211;28;20036;-70
2023/07/06 02:10:13;;;;;;;5.18;2.95;;;;;;;;;;5052841;28;20045;-70
2023/07/06 02:12:38;;;;;;;5.55;2.97;;;;;;;;;;5046627;28;20043;-71
2023/07/06 02:15:04;;;;;;;7.50;3.13;;;;;;;;;;5049012;28;20496;-70
2023/07/06 02:17:29;;;;;;;5.30;3.00;;;;;;;;;;5052859;28;20021;-71
2023/07/06 02:19:55;;;;;;;6.10;3.10;;;;;;;;;;5053331;28;20124;-71
2023/07/06 02:22:21;;;;;;;7.07;3.27;;;;;;;;;;5053113;28;20110;-71
2023/07/06 02:24:46;;;;;;;6.45;2.97;;;;;;;;;;5051132;28;20621;-71
2023/07/06 02:27:11;;;;;;;5.85;2.83;;;;;;;;;;5048027;28;20021;-70
2023/07/06 02:29:36;;;;;;;7.45;3.42;;;;;;;;;;5050326;28;20033;-70
2023/07/06 02:32:02;;;;;;;6.47;3.00;;;;;;;;;;5053162;28;20108;-70
2023/07/06 02:34:28;;;;;;;11.48;3.75;;;;;;;;;;5051968;28;20333;-70
2023/07/06 02:36:54;;;;;;;4.10;2.50;;;;;;;;;;5050995;28;20044;-70
2023/07/06 02:39:20;;;;;;;5.15;3.30;;;;;;;;;;5051316;28;20024;-71
2023/07/06 02:41:45;;;;;;;10.23;3.15;;;;;;;;;;5051859;28;20063;-70
2023/07/06 02:44:11;;;;;;;7.82;3.33;;;;;;;;;;5052484;28;20267;-71
2023/07/06 02:46:36;;;;;;;10.35;3.75;;;;;;;;;;5051915;28;20021;-71
2023/07/06 02:49:03;;;;;;;6.20;3.20;;;;;;;;;;5049741;28;20087;-70
2023/07/06 02:51:29;;;;;;;5.70;2.90;;;;;;;;;;5052262;28;20021;-71
2023/07/06 02:53:54;;;;;;;6.05;3.28;;;;;;;;;;5047425;28;20032;-71
2023/07/06 02:56:19;;;;;;;8.35;3.22;;;;;;;;;;5050306;28;20017;-71
2023/07/06 02:58:45;;;;;;;4.30;3.08;;;;;;;;;;5052573;28;20114;-71
2023/07/06 03:01:12;;;;;;;5.77;3.33;;;;;;;;;;5052386;28;20479;-71
2023/07/06 03:03:37;;;;;;;11.05;3.60;;;;;;;;;;5052232;28;20255;-70
2023/07/06 03:06:03;;;;;;;6.63;3.00;;;;;;;;;;5048575;28;20603;-70
2023/07/06 03:08:28;;;;;;;7.25;2.95;;;;;;;;;;5051258;28;20288;-71
2023/07/06 03:10:53;;;;;;;8.00;3.77;;;;;;;;;;5050960;28;20490;-70
2023/07/06 03:13:18;;;;;;;12.10;4.17;;;;;;;;;;5051098;28;20025;-71
2023/07/06 03:15:49;;;;;;;7.17;3.13;;;;;;;;;;5051494;28;20321;-70
2023/07/06 03:18:14;;;;;;;9.80;3.42;;;;;;;;;;5047833;28;20068;-70
2023/07/06 03:20:40;;;;;;;13.65;4.05;;;;;;;;;;5051864;28;20040;-70
2023/07/06 03:23:06;;;;;;;10.38;3.80;;;;;;;;;;5051735;28;20067;-70
2023/07/06 03:25:33;;;;;;;8.82;3.72;;;;;;;;;;5049134;28;20032;-70
2023/07/06 03:27:58;;;;;;;7.57;3.90;;;;;;;;;;5046502;28;20051;-70
2023/07/06 03:30:26;;;;;;;11.25;3.88;;;;;;;;;;5048650;28;20048;-70
2023/07/06 03:32:54;;;;;;;10.43;3.85;;;;;;;;;;5048691;28;20032;-71
2023/07/06 03:35:22;;;;;;;12.10;3.50;;;;;;;;;;5047939;28;20067;-71
2023/07/06 03:37:47;;;;;;;5.57;3.60;;;;;;;;;;5050292;28;20021;-70
2023/07/06 03:40:13;;;;;;;7.70;3.70;;;;;;;;;;5051571;28;20154;-70
2023/07/06 03:42:39;;;;;;;7.13;3.45;;;;;;;;;;5051245;28;20024;-70
2023/07/06 03:45:05;;;;;;;13.20;3.92;;;;;;;;;;5048538;28;20032;-70
2023/07/06 03:47:32;;;;;;;7.43;4.03;;;;;;;;;;5045150;28;20020;-71
2023/07/06 03:49:58;;;;;;;6.30;3.42;;;;;;;;;;5051040;28;20013;-70
2023/07/06 03:52:23;;;;;;;8.13;3.58;;;;;;;;;;5050085;28;20021;-70
2023/07/06 03:54:49;;;;;;;10.05;3.45;;;;;;;;;;5049758;28;20498;-70
2023/07/06 03:57:16;;;;;;;10.75;3.67;;;;;;;;;;5049146;28;20086;-70
2023/07/06 03:59:41;;;;;;;7.10;3.92;;;;;;;;;;5048549;28;20033;-70
2023/07/06 04:02:06;;;;;;;7.00;3.40;;;;;;;;;;5049531;28;20086;-71
2023/07/06 04:04:32;;;;;;;6.47;3.65;;;;;;;;;;5049033;28;20033;-71
2023/07/06 04:06:58;;;;;;;10.05;3.83;;;;;;;;;;5050706;28;20013;-71
2023/07/06 04:09:25;;;;;;;6.63;3.07;;;;;;;;;;5044704;28;20555;-70
2023/07/06 04:11:52;;;;;;;10.43;4.05;;;;;;;;;;5050122;28;20303;-70
2023/07/06 04:14:21;;;;;;;10.25;3.72;;;;;;;;;;5045468;28;20016;-71
2023/07/06 04:16:46;;;;;;;8.05;4.03;;;;;;;;;;5044301;28;20021;-70
2023/07/06 04:19:11;;;;;;;11.27;3.65;;;;;;;;;;5042831;28;20025;-70
2023/07/06 04:21:36;;;;;;;9.30;3.50;;;;;;;;;;5047907;28;20017;-70
2023/07/06 04:24:04;;;;;;;10.15;3.45;;;;;;;;;;5050430;28;20267;-71
2023/07/06 04:26:29;;;;;;;9.90;3.58;;;;;;;;;;5050289;28;20112;-70
2023/07/06 04:28:54;;;;;;;12.52;3.58;;;;;;;;;;5048842;28;20112;-70
2023/07/06 04:31:19;;;;;;;9.10;3.05;;;;;;;;;;5047197;28;20013;-70
2023/07/06 04:33:45;;;;;;;6.27;2.93;;;;;;;;;;5049863;28;20395;-71
2023/07/06 04:36:11;;;;;;;7.72;3.20;;;;;;;;;;5049035;28;20309;-70
2023/07/06 04:38:36;;;;;;;6.78;3.17;;;;;;;;;;5044459;28;20022;-70
2023/07/06 04:41:01;;;;;;;4.63;2.90;;;;;;;;;;5050100;28;20109;-70
2023/07/06 04:43:27;;;;;;;9.20;3.28;;;;;;;;;;5048210;28;20291;-70
2023/07/06 04:45:55;;;;;;;14.13;3.40;;;;;;;;;;5050211;28;20406;-70
2023/07/06 04:48:21;;;;;;;5.65;3.08;;;;;;;;;;5049277;28;20021;-70
2023/07/06 04:50:46;;;;;;;15.38;3.83;;;;;;;;;;5049465;28;20108;-70
2023/07/06 04:53:11;;;;;;;6.77;2.97;;;;;;;;;;5049000;28;20052;-70
2023/07/06 04:55:37;;;;;;;5.37;2.90;;;;;;;;;;5050139;28;20259;-70
2023/07/06 04:58:05;;;;;;;5.05;2.60;;;;;;;;;;5048441;28;20286;-70
2023/07/06 05:00:32;;;;;;;10.55;3.70;;;;;;;;;;5047347;28;20021;-71
2023/07/06 05:03:00;;;;;;;9.93;4.07;;;;;;;;;;5049958;28;20110;-70
2023/07/06 05:05:27;;;;;;;10.68;3.17;;;;;;;;;;5046259;28;20723;-70
2023/07/06 05:07:53;;;;;;;11.48;2.88;;;;;;;;;;5050016;28;20090;-70
2023/07/06 05:10:19;;;;;;;7.10;2.72;;;;;;;;;;5047842;28;20096;-70
2023/07/06 05:12:44;;;;;;;9.73;3.10;;;;;;;;;;5044443;28;20021;-70
2023/07/06 05:15:10;;;;;;;6.47;3.50;;;;;;;;;;5048454;28;20504;-70
2023/07/06 05:17:37;;;;;;;10.27;3.45;;;;;;;;;;5040090;28;20102;-70
2023/07/06 05:20:02;;;;;;;8.73;3.40;;;;;;;;;;5042921;28;20025;-70
2023/07/06 05:22:27;;;;;;;39.70;6.40;;;;;;;;;;5046473;28;20031;-70
2023/07/06 05:24:53;;;;;;;10.47;3.17;;;;;;;;;;5043090;28;20107;-70
2023/07/06 05:27:21;;;;;;;4.87;3.20;;;;;;;;;;5045688;28;20538;-70
2023/07/06 05:29:46;;;;;;;11.32;3.47;;;;;;;;;;5044448;28;20170;-70
2023/07/06 05:32:11;;;;;;;7.83;3.33;;;;;;;;;;5050609;28;20592;-70
2023/07/06 05:34:36;;;;;;;6.43;2.67;;;;;;;;;;5047950;28;20279;-70
2023/07/06 05:37:01;;;;;;;13.33;3.63;;;;;;;;;;5046487;28;20299;-70
2023/07/06 05:39:26;;;;;;;8.77;3.00;;;;;;;;;;5047652;28;20800;-70
2023/07/06 05:41:52;;;;;;;10.03;2.97;;;;;;;;;;5045837;28;20017;-70
2023/07/06 05:44:17;;;;;;;5.13;2.30;;;;;;;;;;5046743;28;20267;-70
2023/07/06 05:46:42;;;;;;;6.70;2.63;;;;;;;;;;5047245;28;20371;-70
2023/07/06 05:49:07;;;;;;;3.83;1.07;;;;;;;;;;5045793;28;20051;-70
2023/07/06 05:51:32;;;;;;;3.33;2.33;;;;;;;;;;5044715;28;20311;-70
2023/07/06 05:53:58;;;;;;;7.32;2.45;;;;;;;;;;5044089;28;20333;-70
2023/07/06 05:56:23;;;;;;;7.40;1.55;;;;;;;;;;5050840;28;20013;-70
2023/07/06 05:58:49;;;;;;;6.53;3.03;;;;;;;;;;5048556;28;20048;-70
2023/07/06 06:01:14;;;;;;;3.75;1.73;;;;;;;;;;5049095;28;20707;-70
2023/07/06 06:03:40;;;;;;;3.93;2.13;;;;;;;;;;5047968;28;20020;-70
2023/07/06 06:06:05;;;;;;;7.50;2.38;;;;;;;;;;5049802;28;20329;-70
2023/07/06 06:08:30;;;;;;;8.68;2.42;;;;;;;;;;5050445;28;20040;-70
2023/07/06 06:10:56;;;;;;;11.30;2.90;;;;;;;;;;5050631;28;20028;-70
2023/07/06 06:13:21;;;;;;;5.28;2.25;;;;;;;;;;5048114;28;20037;-70
2023/07/06 06:15:47;;;;;;;5.72;1.52;;;;;;;;;;5050650;28;20017;-70
2023/07/06 06:18:13;;;;;;;6.40;2.58;;;;;;;;;;5048993;28;20075;-70
2023/07/06 06:20:38;;;;;;;10.30;1.92;;;;;;;;;;5051878;28;20036;-70
2023/07/06 06:23:04;;;;;;;8.57;2.60;;;;;;;;;;5052883;28;20009;-70
2023/07/06 06:25:30;;;;;;;9.30;2.45;;;;;;;;;;5049568;28;20756;-70
2023/07/06 06:27:55;;;;;;;12.07;3.00;;;;;;;;;;5043380;28;20024;-70
2023/07/06 06:30:20;;;;;;;4.47;1.98;;;;;;;;;;5051422;28;20660;-70
2023/07/06 06:32:45;;;;;;;7.60;2.43;;;;;;;;;;5050035;28;20436;-70
2023/07/06 06:35:29;;;;;;;11.23;2.90;;;;;;;;;;5049977;28;20032;-70
2023/07/06 06:37:54;;;;;;;12.77;3.10;;;;;;;;;;5051523;28;20794;-70
2023/07/06 06:40:20;;;;;;;7.22;2.20;;;;;;;;;;5047219;28;20032;-70
2023/07/06 06:42:47;;;;;;;8.27;1.77;;;;;;;;;;5048104;28;20506;-70
2023/07/06 06:45:13;;;;;;;8.25;2.25;;;;;;;;;;5045980;28;20056;-70
2023/07/06 06:47:38;;;;;;;10.07;1.75;;;;;;;;;;5050009;28;20059;-70
2023/07/06 06:50:03;;;;;;;5.85;1.45;;;;;;;;;;5051843;28;20029;-70
2023/07/06 06:52:28;;;;;;;8.15;2.10;;;;;;;;;;5051024;28;20059;-70
2023/07/06 06:54:54;;;;;;;10.30;2.00;;;;;;;;;;5047980;28;20033;-70
2023/07/06 06:57:20;;;;;;;6.00;1.60;;;;;;;;;;5050144;28;20013;-70
2023/07/06 06:59:47;;;;;;;14.65;2.20;;;;;;;;;;5045839;28;20267;-70
2023/07/06 07:02:12;;;;;;;6.72;1.83;;;;;;;;;;5048870;28;20394;-70
2023/07/06 07:04:38;;;;;;;11.23;2.30;;;;;;;;;;5049273;28;20021;-70
2023/07/06 07:07:03;;;;;;;8.75;1.63;;;;;;;;;;5044771;28;20283;-71
2023/07/06 07:09:29;;;;;;;13.70;2.90;;;;;;;;;;5044667;28;20037;-70
2023/07/06 07:11:54;;;;;;;9.38;1.65;;;;;;;;;;5050193;28;20475;-70
2023/07/06 07:14:19;;;;;;;8.47;2.13;;;;;;;;;;5050046;28;20043;-70
2023/07/06 07:16:45;;;;;;;10.73;2.20;;;;;;;;;;5049742;28;20033;-70
2023/07/06 07:19:10;;;;;;;8.13;1.88;;;;;;;;;;5048431;28;20393;-70
2023/07/06 07:21:35;;;;;;;7.82;1.80;;;;;;;;;;5046221;28;20036;-70
2023/07/06 07:24:01;;;;;;;6.30;1.70;;;;;;;;;;5048395;28;20032;-70
2023/07/06 07:26:26;;;;;;;7.80;1.60;;;;;;;;;;5050896;28;20102;-70
2023/07/06 07:28:52;;;;;;;16.45;1.98;;;;;;;;;;5051965;28;20537;-70
2023/07/06 07:31:17;;;;;;;5.13;1.30;;;;;;;;;;5050807;28;20100;-70
2023/07/06 07:33:43;;;;;;;8.35;2.05;;;;;;;;;;5049421;28;20414;-70
2023/07/06 07:36:09;;;;;;;8.52;2.92;;;;;;;;;;5051478;28;20100;-70
2023/07/06 07:38:36;;;;;;;6.68;1.75;;;;;;;;;;5051848;28;20104;-70
2023/07/06 07:41:01;;;;;;;10.02;1.38;;;;;;;;;;5051288;28;20023;-70
2023/07/06 07:43:32;;;;;;;12.93;1.65;;;;;;;;;;5048774;28;20037;-70
2023/07/06 07:46:04;;;;;;;6.65;1.80;;;;;;;;;;5050970;28;20086;-70
2023/07/06 07:48:32;;;;;;;5.40;1.98;;;;;;;;;;5050624;28;20069;-70
2023/07/06 07:50:58;;;;;;;11.73;2.03;;;;;;;;;;5050445;28;20009;-70
2023/07/06 07:53:25;;;;;;;5.28;1.60;;;;;;;;;;5049364;28;20378;-71
2023/07/06 07:55:52;;;;;;;6.68;1.85;;;;;;;;;;5051187;28;20036;-71
2023/07/06 07:58:17;;;;;;;3.30;1.30;;;;;;;;;;5051270;28;20359;-71
2023/07/06 08:00:51;;;;;;;6.13;1.73;;;;;;;;;;5051265;28;20032;-71
2023/07/06 08:03:17;;;;;;;10.90;1.70;;;;;;;;;;5051134;28;20032;-71
2023/07/06 08:05:42;;;;;;;8.13;1.33;;;;;;;;;;5048444;28;20036;-71
2023/07/06 08:08:09;;;;;;;9.40;1.55;;;;;;;;;;5045440;28;20322;-71
2023/07/06 08:10:34;;;;;;;5.05;1.48;;;;;;;;;;5049936;28;20036;-71
2023/07/06 08:12:59;;;;;;;5.07;1.45;;;;;;;;;;5049644;28;20033;-71
2023/07/06 08:15:25;;;;;;;3.20;1.33;;;;;;;;;;5048295;28;20031;-71
2023/07/06 08:17:50;;;;;;;7.07;1.57;;;;;;;;;;5046010;28;20063;-71
2023/07/06 08:20:17;;;;;;;5.37;2.47;;;;;;;;;;5049131;28;20275;-70
2023/07/06 08:22:42;;;;;;;6.75;2.13;;;;;;;;;;5048235;28;20032;-70
2023/07/06 08:25:08;;;;;;;8.63;2.37;;;;;;;;;;5048762;28;20029;-70
2023/07/06 08:27:34;;;;;;;5.53;1.23;;;;;;;;;;5049644;28;20272;-70
2023/07/06 08:29:59;;;;;;;5.10;1.45;;;;;;;;;;5050785;28;20028;-70
2023/07/06 08:32:24;;;;;;;10.20;1.77;;;;;;;;;;5050684;28;20355;-70
2023/07/06 08:34:50;;;;;;;8.67;1.70;;;;;;;;;;5049419;28;20268;-70
2023/07/06 08:37:18;;;;;;;9.60;1.75;;;;;;;;;;5049294;28;20276;-71
2023/07/06 08:39:43;;;;;;;7.95;1.90;;;;;;;;;;5049410;28;20020;-71
2023/07/06 08:42:10;;;;;;;5.00;1.27;;;;;;;;;;5050560;28;20035;-70
2023/07/06 08:44:36;;;;;;;8.45;1.55;;;;;;;;;;5050494;28;20264;-70
2023/07/06 08:47:01;;;;;;;6.60;1.55;;;;;;;;;;5050568;28;20051;-70
2023/07/06 08:49:27;;;;;;;3.97;1.20;;;;;;;;;;5050468;28;20143;-70
2023/07/06 08:51:53;;;;;;;4.25;1.45;;;;;;;;;;5049606;28;20191;-71
2023/07/06 08:54:21;;;;;;;9.40;1.20;;;;;;;;;;5049153;28;20017;-71
2023/07/06 08:56:48;;;;;;;5.75;1.13;;;;;;;;;;5050062;28;20071;-71
2023/07/06 08:59:16;;;;;;;4.75;1.48;;;;;;;;;;5050575;28;20032;-71
2023/07/06 09:01:41;;;;;;;7.90;1.40;;;;;;;;;;5050335;28;20021;-71
2023/07/06 09:04:14;;;;;;;6.93;1.42;;;;;;;;;;5050657;28;20025;-71
2023/07/06 09:06:43;;;;;;;7.80;1.77;;;;;;;;;;5048618;28;20021;-71
2023/07/06 09:09:08;;;;;;;7.05;1.02;;;;;;;;;;5049177;28;20024;-71
2023/07/06 09:11:34;;;;;;;5.05;1.58;;;;;;;;;;5049863;28;20021;-71
2023/07/06 09:14:02;;;;;;;7.07;0.95;;;;;;;;;;5050168;28;20036;-71
2023/07/06 09:16:28;;;;;;;7.20;1.30;;;;;;;;;;5050157;28;20085;-71
2023/07/06 09:18:53;;;;;;;3.55;1.13;;;;;;;;;;5050224;28;20025;-71
2023/07/06 09:21:25;;;;;;;4.63;1.27;;;;;;;;;;5048893;28;20528;-71
2023/07/06 09:23:51;;;;;;;8.48;2.70;;;;;;;;;;5047922;28;20109;-71
2023/07/06 09:26:28;;;;;;;5.18;1.70;;;;;;;;;;5045973;28;20025;-71
2023/07/06 09:29:13;;;;;;;8.50;1.65;;;;;;;;;;5045458;28;20017;-71
2023/07/06 09:31:39;;;;;;;4.35;1.58;;;;;;;;;;5044305;28;20135;-71
2023/07/06 09:34:10;;;;;;;5.70;1.42;;;;;;;;;;5049883;28;20375;-71
2023/07/06 09:36:36;;;;;;;6.05;1.40;;;;;;;;;;5039436;28;20128;-71
2023/07/06 09:39:05;;;;;;;3.20;1.27;;;;;;;;;;5044551;28;20095;-71
2023/07/06 09:41:32;;;;;;;2.35;1.02;;;;;;;;;;5043457;28;20028;-71
2023/07/06 09:43:58;;;;;;;4.25;1.20;;;;;;;;;;5046113;28;20029;-71
2023/07/06 09:46:30;;;;;;;6.97;1.13;;;;;;;;;;5047232;28;20024;-71
2023/07/06 09:48:55;;;;;;;7.53;1.10;;;;;;;;;;5047001;28;20367;-71
2023/07/06 09:51:24;;;;;;;4.05;1.27;;;;;;;;;;5042938;28;20523;-71
2023/07/06 09:53:58;;;;;;;6.10;1.25;;;;;;;;;;5042166;28;20416;-71
2023/07/06 09:56:24;;;;;;;3.97;1.67;;;;;;;;;;5046864;28;20071;-71
2023/07/06 09:58:51;;;;;;;5.13;1.10;;;;;;;;;;5043998;28;20049;-71
2023/07/06 10:01:31;;;;;;;5.57;1.30;;;;;;;;;;5044955;28;20092;-71
2023/07/06 10:03:56;;;;;;;;;;;;;;;;;;5043990;28;20071;-71
2023/07/06 10:06:30;;;;;;;2.47;1.00;;;;;;;;;;5041662;28;19956;-71
2023/07/06 10:09:03;;;;;;;5.38;1.20;;;;;;;;;;5044637;28;20052;-71
2023/07/06 10:11:28;;;;;;;2.55;1.17;;;;;;;;;;5048275;28;20632;-71
2023/07/06 10:14:11;;;;;;;8.25;1.10;;;;;;;;;;5047051;28;20047;-71
2023/07/06 10:16:37;;;;;;;3.40;1.08;;;;;;;;;;5044088;28;20409;-71
2023/07/06 10:19:17;;;;;;;2.10;1.17;;;;;;;;;;5051358;28;20025;-71
2023/07/06 10:21:49;;;;;;;3.13;1.02;;;;;;;;;;5048355;28;20060;-71
2023/07/06 10:24:20;;;;;;;2.85;0.98;;;;;;;;;;5051124;28;20066;-72
2023/07/06 10:26:49;;;;;;;2.67;1.20;;;;;;;;;;5050959;28;20093;-71
2023/07/06 10:29:17;;;;;;;3.63;1.10;;;;;;;;;;5052602;28;20098;-71
2023/07/06 10:32:04;;;;;;;2.65;1.08;;;;;;;;;;5048833;28;20166;-71
2023/07/06 10:34:38;;;;;;;1.80;0.50;;;;;;;;;;5052352;28;20024;-71
2023/07/06 10:37:04;;;;;;;6.97;1.17;;;;;;;;;;5051252;28;20020;-75
2023/07/06 10:39:29;;;;;;;2.60;0.93;;;;;;;;;;5052033;28;20029;-71
2023/07/06 10:42:02;;;;;;;4.57;1.10;;;;;;;;;;5052613;28;20033;-72
2023/07/06 10:44:44;;;;;;;2.67;0.70;;;;;;;;;;5051931;28;20044;-72
2023/07/06 10:47:28;;;;;;;2.13;0.77;;;;;;;;;;5048375;28;20078;-72
2023/07/06 10:50:08;;;;;;;3.75;0.80;;;;;;;;;;5049952;28;20067;-72
2023/07/06 10:52:37;;;;;;;3.10;0.98;;;;;;;;;;5051648;28;20021;-71
2023/07/06 10:55:09;;;;;;;4.27;0.80;;;;;;;;;;5052045;28;20662;-71
2023/07/06 10:57:36;;;;;;;4.32;0.95;;;;;;;;;;5046954;28;20791;-71
2023/07/06 11:00:10;;;;;;;4.47;0.90;;;;;;;;;;5051923;28;20048;-71
2023/07/06 11:02:39;;;;;;;5.07;0.80;;;;;;;;;;5045159;28;20025;-71
2023/07/06 11:05:07;;;;;;;5.78;0.80;;;;;;;;;;5045937;28;20481;-71
2023/07/06 11:07:49;;;;;;;4.80;1.08;;;;;;;;;;5051572;28;20478;-71
2023/07/06 11:10:26;;;;;;;7.47;1.20;;;;;;;;;;5052508;28;20393;-72
2023/07/06 11:13:01;;;;;;;3.85;0.85;;;;;;;;;;5050691;28;20025;-71
2023/07/06 11:15:35;;;;;;;6.85;0.75;;;;;;;;;;5049213;28;20364;-71
2023/07/06 11:18:06;;;;;;;6.18;1.23;;;;;;;;;;5050623;28;20710;-71
2023/07/06 11:20:32;;;;;;;2.67;1.00;;;;;;;;;;5049951;28;20029;-71
2023/07/06 11:23:02;;;;;;;7.63;1.13;;;;;;;;;;5046888;28;20095;-71
2023/07/06 11:25:29;;;;;;;5.10;1.20;;;;;;;;;;5045543;28;20278;-71
2023/07/06 11:28:07;;;;;;;3.53;0.80;;;;;;;;;;5044373;28;20517;-71
2023/07/06 11:30:49;;;;;;;5.18;0.80;;;;;;;;;;5047379;28;20106;-71
2023/07/06 11:33:15;;;;;;;4.70;1.13;;;;;;;;;;5045043;28;20082;-71
2023/07/06 11:35:59;;;;;;;2.83;0.75;;;;;;;;;;5047250;28;20537;-71
2023/07/06 11:38:24;;;;;;;3.22;0.98;;;;;;;;;;5049773;28;20096;-71
2023/07/06 11:41:00;;;;;;;2.15;0.88;;;;;;;;;;5050538;28;20148;-71
2023/07/06 11:43:40;;;;;;;5.40;0.80;;;;;;;;;;5047780;28;20493;-71
2023/07/06 11:46:23;;;;;;;4.30;0.70;;;;;;;;;;5047266;28;20052;-71
2023/07/06 11:48:51;;;;;;;2.35;0.65;;;;;;;;;;5047728;28;20064;-71
2023/07/06 11:51:19;;;;;;;2.65;0.93;;;;;;;;;;5047434;28;20071;-71
2023/07/06 11:53:54;;;;;;;2.95;0.82;;;;;;;;;;5050651;28;20024;-71
2023/07/06 11:56:33;;;;;;;3.95;0.68;;;;;;;;;;5047481;28;20474;-71
2023/07/06 11:59:04;;;;;;;2.72;0.77;;;;;;;;;;5048316;28;20443;-72
2023/07/06 12:01:45;;;;;;;5.65;1.23;;;;;;;;;;5049368;28;20504;-71
2023/07/06 12:04:20;;;;;;;3.03;0.90;;;;;;;;;;5046710;28;20033;-72
2023/07/06 12:06:46;;;;;;;2.65;0.70;;;;;;;;;;5046740;28;20025;-72
2023/07/06 12:09:18;;;;;;;1.75;0.77;;;;;;;;;;5050199;28;20096;-71
2023/07/06 12:11:44;;;;;;;1.67;0.75;;;;;;;;;;5044997;28;20434;-71
2023/07/06 12:14:18;;;;;;;3.30;0.73;;;;;;;;;;5050443;28;20017;-71
2023/07/06 12:16:44;;;;;;;2.00;0.80;;;;;;;;;;5044462;28;20153;-71
2023/07/06 12:19:10;;;;;;;3.80;0.60;;;;;;;;;;5050831;28;20105;-72
2023/07/06 12:21:39;;;;;;;2.22;0.80;;;;;;;;;;5050160;28;20029;-72
2023/07/06 12:24:05;;;;;;;4.85;0.75;;;;;;;;;;5049112;28;20028;-72
2023/07/06 12:26:30;;;;;;;2.50;0.90;;;;;;;;;;5046669;28;20418;-71
2023/07/06 12:28:56;;;;;;;5.60;1.27;;;;;;;;;;5048941;28;20021;-71
2023/07/06 12:31:23;;;;;;;2.92;0.90;;;;;;;;;;5049962;28;20104;-71
2023/07/06 12:33:51;;;;;;;10.73;1.17;;;;;;;;;;5051027;28;20672;-72
2023/07/06 12:36:16;;;;;;;3.70;0.90;;;;;;;;;;5048466;28;20021;-72
2023/07/06 12:38:46;;;;;;;2.20;0.90;;;;;;;;;;5048904;28;20583;-71
2023/07/06 12:41:13;;;;;;;4.68;0.70;;;;;;;;;;5048468;28;20095;-72
2023/07/06 12:43:38;;;;;;;3.17;0.80;;;;;;;;;;5042969;28;20029;-71
2023/07/06 12:46:04;;;;;;;1.07;0.70;;;;;;;;;;5048866;28;20500;-72
2023/07/06 12:48:29;;;;;;;2.53;0.90;;;;;;;;;;5050100;28;20295;-71
2023/07/06 12:50:55;;;;;;;2.78;0.80;;;;;;;;;;5050318;28;20016;-71
2023/07/06 12:53:27;;;;;;;1.70;0.80;;;;;;;;;;5049907;28;20025;-72
2023/07/06 12:55:58;;;;;;;1.38;0.73;;;;;;;;;;5047977;28;20021;-72
2023/07/06 12:58:27;;;;;;;3.22;0.82;;;;;;;;;;5050021;28;20025;-72
2023/07/06 13:00:59;;;;;;;1.45;0.82;;;;;;;;;;5049874;28;20036;-72
2023/07/06 13:03:25;;;;;;;3.38;1.08;;;;;;;;;;5049984;28;20114;-71
2023/07/06 13:05:57;;;;;;;2.05;0.90;;;;;;;;;;5048699;28;20079;-72
2023/07/06 13:08:23;;;;;;;5.05;1.17;;;;;;;;;;5047379;28;20100;-72
2023/07/06 13:10:55;;;;;;;4.82;1.45;;;;;;;;;;5044509;28;20021;-72
2023/07/06 13:13:20;;;;;;;4.07;1.10;;;;;;;;;;5044555;28;20123;-72
2023/07/06 13:15:47;;;;;;;2.73;1.00;;;;;;;;;;5045875;28;20021;-72
2023/07/06 13:18:16;;;;;;;4.25;1.00;;;;;;;;;;5046484;28;20644;-72
2023/07/06 13:20:43;;;;;;;3.58;1.20;;;;;;;;;;5049198;28;20025;-72
2023/07/06 13:23:11;;;;;;;1.67;0.55;;;;;;;;;;5046315;28;20033;-72
2023/07/06 13:25:40;;;;;;;1.83;0.75;;;;;;;;;;5038038;28;20389;-72
2023/07/06 13:28:06;;;;;;;4.20;1.30;;;;;;;;;;5047213;28;20086;-72
2023/07/06 13:30:32;;;;;;;5.45;1.30;;;;;;;;;;5046209;28;20562;-72
2023/07/06 13:32:57;;;;;;;3.92;1.45;;;;;;;;;;5043473;28;20013;-72
2023/07/06 13:35:23;;;;;;;5.05;1.00;;;;;;;;;;5048587;28;20040;-72
2023/07/06 13:37:48;;;;;;;2.45;0.95;;;;;;;;;;5045162;28;20099;-72
2023/07/06 13:40:17;;;;;;;3.83;0.93;;;;;;;;;;5047069;28;20370;-72
2023/07/06 13:42:43;;;;;;;3.40;0.88;;;;;;;;;;5045565;28;20025;-72
2023/07/06 13:45:18;;;;;;;2.90;0.88;;;;;;;;;;5044251;28;20039;-72
2023/07/06 13:47:44;;;;;;;2.05;0.98;;;;;;;;;;5046387;28;20036;-72
2023/07/06 13:50:11;;;;;;;2.30;0.80;;;;;;;;;;5052745;28;20017;-72
2023/07/06 13:52:36;;;;;;;4.20;0.90;;;;;;;;;;5052045;28;20013;-72
2023/07/06 13:55:02;;;;;;;4.47;1.00;;;;;;;;;;5049171;28;20021;-72
2023/07/06 13:57:29;;;;;;;2.63;1.00;;;;;;;;;;5047804;28;20040;-72
2023/07/06 13:59:54;;;;;;;2.22;0.98;;;;;;;;;;5047973;28;20059;-72
2023/07/06 14:02:21;;;;;;;5.27;1.40;;;;;;;;;;5050928;28;20048;-72
2023/07/06 14:04:46;;;;;;;3.92;1.30;;;;;;;;;;5052359;28;20061;-72
2023/07/06 14:07:11;;;;;;;4.60;1.70;;;;;;;;;;5050194;28;20467;-72
2023/07/06 14:09:36;;;;;;;6.63;1.40;;;;;;;;;;5049547;28;20131;-72
2023/07/06 14:12:03;;;;;;;3.87;1.00;;;;;;;;;;5050325;28;20033;-72
2023/07/06 14:14:28;;;;;;;3.30;1.23;;;;;;;;;;5052720;28;20263;-72
2023/07/06 14:16:53;;;;;;;2.78;0.75;;;;;;;;;;5052421;28;20070;-72
2023/07/06 14:19:19;;;;;;;5.50;1.10;;;;;;;;;;5050400;28;20029;-72
2023/07/06 14:21:44;;;;;;;4.13;1.33;;;;;;;;;;5047123;28;20280;-72
2023/07/06 14:24:10;;;;;;;3.13;1.13;;;;;;;;;;5049516;28;20648;-72
2023/07/06 14:26:35;;;;;;;4.85;1.20;;;;;;;;;;5050572;28;20021;-72
2023/07/06 14:29:00;;;;;;;2.40;0.80;;;;;;;;;;5052003;28;20043;-72
2023/07/06 14:31:27;;;;;;;5.43;1.95;;;;;;;;;;5048777;28;20021;-72
2023/07/06 14:33:52;;;;;;;3.45;1.27;;;;;;;;;;5048302;28;20220;-72
2023/07/06 14:36:17;;;;;;;5.72;1.20;;;;;;;;;;5052441;28;20017;-72
2023/07/06 14:38:43;;;;;;;2.65;1.00;;;;;;;;;;5053046;28;20024;-72
2023/07/06 14:41:09;;;;;;;12.07;1.13;;;;;;;;;;5051121;28;20110;-72
2023/07/06 14:43:35;;;;;;;3.30;1.42;;;;;;;;;;5052715;28;20025;-72